Time;durP1;ratioP1;P1;durP2;ratioP2;P2;SDS_P1;SDS_P2;PMS_P1;PMS_P2;Temp;Humidity;BMP_temperature;BMP_pressure;BME280_temperature;BME280_humidity;BME280_pressure;Samples;Min_cycle;Max_cycle;Signal;HPM_P1;HPM_P2
2020/12/05 00:02:20;;;;;;;35.13;19.33;;;2.20;87.10;;;;;;5005112;28;20042;-74
2020/12/05 00:04:45;;;;;;;35.63;19.37;;;2.10;87.10;;;;;;4990028;28;20042;-73
2020/12/05 00:07:12;;;;;;;34.27;19.47;;;2.00;87.40;;;;;;4990721;28;20453;-74
2020/12/05 00:09:39;;;;;;;33.40;18.30;;;1.90;87.80;;;;;;4990177;28;20208;-74
2020/12/05 00:12:06;;;;;;;38.13;19.20;;;1.90;88.00;;;;;;4988506;28;20034;-74
2020/12/05 00:14:32;;;;;;;40.77;21.37;;;1.80;88.40;;;;;;5005034;28;20194;-74
2020/12/05 00:16:58;;;;;;;34.40;19.33;;;1.80;88.10;;;;;;4990576;28;20485;-73
2020/12/05 00:19:24;;;;;;;39.27;20.27;;;1.70;88.00;;;;;;4973136;28;20081;-74
2020/12/05 00:21:53;;;;;;;39.77;21.17;;;1.60;87.90;;;;;;4988386;28;20384;-74
2020/12/05 00:24:19;;;;;;;40.25;21.50;;;1.50;88.00;;;;;;4989392;28;20038;-73
2020/12/05 00:26:54;;;;;;;40.37;20.50;;;1.50;88.20;;;;;;4989943;28;20050;-75
2020/12/05 00:29:21;;;;;;;38.80;21.00;;;1.40;88.40;;;;;;5005619;28;20038;-73
2020/12/05 00:31:53;;;;;;;38.97;20.60;;;1.30;88.60;;;;;;4989374;28;20174;-75
2020/12/05 00:34:19;;;;;;;37.43;20.57;;;1.30;88.50;;;;;;4990510;28;20039;-74
2020/12/05 00:36:45;;;;;;;41.80;21.27;;;1.20;88.50;;;;;;4990162;28;20073;-73
2020/12/05 00:39:11;;;;;;;43.23;22.40;;;1.20;88.60;;;;;;4989945;28;20120;-74
2020/12/05 00:41:37;;;;;;;44.77;22.63;;;1.10;88.60;;;;;;5004660;28;20054;-74
2020/12/05 00:44:03;;;;;;;40.77;21.37;;;1.00;88.80;;;;;;4988507;28;20061;-74
2020/12/05 00:46:29;;;;;;;40.30;20.07;;;1.00;89.10;;;;;;4973094;28;20047;-74
2020/12/05 00:48:55;;;;;;;40.40;19.47;;;0.90;89.00;;;;;;4993688;28;20130;-74
2020/12/05 00:51:21;;;;;;;40.87;21.03;;;0.90;89.00;;;;;;5008525;28;20064;-74
2020/12/05 00:53:48;;;;;;;45.80;21.73;;;0.80;89.00;;;;;;4991798;28;20045;-73
2020/12/05 00:56:19;;;;;;;37.07;19.37;;;0.80;89.10;;;;;;4975936;28;20411;-73
2020/12/05 00:58:45;;;;;;;42.88;21.33;;;0.70;89.20;;;;;;4992540;28;20045;-73
2020/12/05 01:01:12;;;;;;;42.33;21.00;;;0.70;89.30;;;;;;5009168;28;20046;-74
2020/12/05 01:03:38;;;;;;;53.53;24.07;;;0.60;89.30;;;;;;4992649;28;20030;-75
2020/12/05 01:06:04;;;;;;;51.03;23.30;;;0.60;89.60;;;;;;5008516;28;20046;-75
2020/12/05 01:08:30;;;;;;;43.87;22.63;;;0.60;90.00;;;;;;4959453;28;20042;-75
2020/12/05 01:10:56;;;;;;;50.07;25.13;;;0.60;90.20;;;;;;5008321;28;20483;-74
2020/12/05 01:13:21;;;;;;;48.77;23.40;;;0.60;90.20;;;;;;4975354;28;20042;-75
2020/12/05 01:15:47;;;;;;;47.07;23.17;;;0.70;90.30;;;;;;4975611;28;21359;-75
2020/12/05 01:18:13;;;;;;;44.83;21.90;;;0.60;90.20;;;;;;4993392;28;20130;-75
2020/12/05 01:20:38;;;;;;;45.90;22.23;;;0.70;90.20;;;;;;4992821;28;20230;-75
2020/12/05 01:23:04;;;;;;;48.97;23.17;;;0.60;90.10;;;;;;4975145;28;20065;-75
2020/12/05 01:25:30;;;;;;;49.50;24.37;;;0.60;90.10;;;;;;4993279;28;20498;-75
2020/12/05 01:27:56;;;;;;;53.83;24.80;;;0.60;90.20;;;;;;5007899;28;20042;-75
2020/12/05 01:30:21;;;;;;;56.30;26.03;;;0.60;90.40;;;;;;4991673;28;20061;-75
2020/12/05 01:32:47;;;;;;;54.97;25.70;;;0.60;90.50;;;;;;4992106;28;20495;-75
2020/12/05 01:35:13;;;;;;;52.97;25.37;;;0.60;90.60;;;;;;5008636;28;20026;-75
2020/12/05 01:37:38;;;;;;;52.87;26.10;;;0.70;90.80;;;;;;4993795;28;20454;-75
2020/12/05 01:40:04;;;;;;;52.07;24.93;;;0.70;91.00;;;;;;5008413;28;20088;-75
2020/12/05 01:42:30;;;;;;;54.50;25.77;;;0.80;91.10;;;;;;4993149;28;20037;-75
2020/12/05 01:44:56;;;;;;;51.07;25.37;;;0.90;91.10;;;;;;4991674;28;20483;-75
2020/12/05 01:47:26;;;;;;;51.83;25.37;;;1.00;91.20;;;;;;4993599;28;20484;-75
2020/12/05 01:49:52;;;;;;;48.90;25.52;;;1.00;91.10;;;;;;4992294;28;20034;-75
2020/12/05 01:52:19;;;;;;;46.73;23.97;;;1.10;91.10;;;;;;4992320;28;20038;-75
2020/12/05 01:54:46;;;;;;;47.63;24.20;;;2.20;91.40;;;;;;4992197;28;20039;-75
2020/12/05 01:57:11;;;;;;;47.23;23.83;;;1.40;91.10;;;;;;5007486;28;20066;-75
2020/12/05 01:59:37;;;;;;;48.87;24.47;;;1.20;90.90;;;;;;4991670;28;20062;-75
2020/12/05 02:02:04;;;;;;;43.90;22.70;;;1.10;90.90;;;;;;5007118;28;20042;-75
2020/12/05 02:04:49;;;;;;;53.27;26.33;;;1.10;90.90;;;;;;4991083;28;20076;-76
2020/12/05 02:07:29;;;;;;;47.87;23.47;;;1.20;90.90;;;;;;4992247;28;20392;-75
2020/12/05 02:09:56;;;;;;;47.60;24.52;;;1.10;91.00;;;;;;5004743;28;20129;-75
2020/12/05 02:12:34;;;;;;;46.80;24.23;;;1.10;91.10;;;;;;5010731;28;20490;-74
2020/12/05 02:15:11;;;;;;;48.60;24.47;;;1.20;91.10;;;;;;5011987;28;20486;-75
2020/12/05 02:17:50;;;;;;;52.73;24.63;;;1.20;91.20;;;;;;5026684;28;20116;-76
2020/12/05 02:20:16;;;;;;;49.37;24.87;;;1.20;91.20;;;;;;5011892;28;20058;-75
2020/12/05 02:22:45;;;;;;;48.70;25.40;;;1.20;91.20;;;;;;5010755;28;20096;-74
2020/12/05 02:25:13;;;;;;;54.30;26.40;;;1.20;91.20;;;;;;5010233;28;20084;-74
2020/12/05 02:27:42;;;;;;;49.27;25.10;;;1.20;91.20;;;;;;4993453;28;20054;-74
2020/12/05 02:30:09;;;;;;;50.60;25.47;;;1.30;91.30;;;;;;5010153;28;20065;-74
2020/12/05 02:32:35;;;;;;;50.80;24.93;;;1.30;91.40;;;;;;5009201;28;20530;-75
2020/12/05 02:35:01;;;;;;;45.93;23.97;;;1.70;91.50;;;;;;5011266;28;20096;-75
2020/12/05 02:37:29;;;;;;;50.90;26.07;;;1.30;91.40;;;;;;5011189;28;20034;-74
2020/12/05 02:39:56;;;;;;;50.80;25.80;;;1.30;91.40;;;;;;5010909;28;20033;-76
2020/12/05 02:42:22;;;;;;;47.97;24.27;;;1.30;91.40;;;;;;5010620;28;20534;-75
2020/12/05 02:44:50;;;;;;;47.60;25.13;;;1.40;91.40;;;;;;5009226;28;20042;-75
2020/12/05 02:47:16;;;;;;;50.10;24.03;;;1.40;91.30;;;;;;5009539;28;20056;-75
2020/12/05 02:49:43;;;;;;;50.00;25.27;;;1.40;91.40;;;;;;5026393;28;20042;-75
2020/12/05 02:52:09;;;;;;;49.33;25.43;;;1.40;91.40;;;;;;4992453;28;20121;-75
2020/12/05 02:54:35;;;;;;;47.13;24.93;;;1.40;91.40;;;;;;4993456;28;20121;-75
2020/12/05 02:57:01;;;;;;;48.80;24.00;;;1.40;91.40;;;;;;4993024;28;20466;-75
2020/12/05 02:59:27;;;;;;;50.13;25.87;;;1.40;91.40;;;;;;5009993;28;20026;-75
2020/12/05 03:01:54;;;;;;;48.27;25.80;;;1.30;91.40;;;;;;5008774;28;20045;-76
2020/12/05 03:04:20;;;;;;;49.13;25.80;;;1.30;91.30;;;;;;5025585;28;20058;-75
2020/12/05 03:06:46;;;;;;;48.77;24.90;;;1.30;91.40;;;;;;5009775;28;20561;-75
2020/12/05 03:09:12;;;;;;;49.07;23.53;;;1.30;91.40;;;;;;5010324;28;20049;-75
2020/12/05 03:11:38;;;;;;;50.37;25.23;;;1.30;91.50;;;;;;5009124;28;20078;-75
2020/12/05 03:14:04;;;;;;;50.70;26.10;;;1.30;91.50;;;;;;5010855;28;20046;-76
2020/12/05 03:16:29;;;;;;;52.23;26.17;;;1.40;91.60;;;;;;5010352;28;20061;-75
2020/12/05 03:18:55;;;;;;;48.47;25.27;;;1.30;91.50;;;;;;5010877;28;20045;-75
2020/12/05 03:21:21;;;;;;;50.00;25.17;;;1.40;91.60;;;;;;5025323;28;20073;-75
2020/12/05 03:23:46;;;;;;;51.83;26.30;;;1.30;91.60;;;;;;5010140;28;20166;-75
2020/12/05 03:26:13;;;;;;;51.10;26.13;;;1.40;91.70;;;;;;4992842;28;20542;-74
2020/12/05 03:28:39;;;;;;;46.03;23.97;;;1.40;91.70;;;;;;5010267;28;20025;-74
2020/12/05 03:31:06;;;;;;;52.57;25.47;;;1.40;91.70;;;;;;5010654;28;20046;-74
2020/12/05 03:33:34;;;;;;;46.30;25.00;;;1.40;91.70;;;;;;5008747;28;20026;-75
2020/12/05 03:35:59;;;;;;;48.73;25.13;;;1.50;91.70;;;;;;5009759;28;20487;-75
2020/12/05 03:38:25;;;;;;;49.40;24.90;;;1.90;91.80;;;;;;5009019;28;20034;-75
2020/12/05 03:40:51;;;;;;;48.77;24.83;;;1.50;91.70;;;;;;4993817;28;20471;-75
2020/12/05 03:43:17;;;;;;;49.63;25.27;;;1.50;91.70;;;;;;5010628;28;20041;-75
2020/12/05 03:45:43;;;;;;;48.70;25.57;;;1.50;91.70;;;;;;5025684;28;20033;-75
2020/12/05 03:48:12;;;;;;;49.40;25.97;;;1.50;91.80;;;;;;5009856;28;20557;-75
2020/12/05 03:50:41;;;;;;;43.30;21.40;;;1.60;91.80;;;;;;5026157;28;20034;-75
2020/12/05 03:53:07;;;;;;;45.33;21.50;;;1.60;92.00;;;;;;5005546;28;20523;-75
2020/12/05 03:55:33;;;;;;;50.43;27.03;;;1.60;91.80;;;;;;4990316;28;20125;-76
2020/12/05 03:58:01;;;;;;;47.13;24.77;;;1.60;91.80;;;;;;4991200;28;20035;-75
2020/12/05 04:00:27;;;;;;;48.77;26.33;;;1.80;91.90;;;;;;4989967;28;20451;-75
2020/12/05 04:02:53;;;;;;;48.07;22.87;;;1.70;91.80;;;;;;5005205;28;20514;-75
2020/12/05 04:05:20;;;;;;;49.77;24.97;;;1.80;91.80;;;;;;4957190;28;20046;-75
2020/12/05 04:07:45;;;;;;;49.43;25.90;;;1.80;91.80;;;;;;4989623;28;20038;-74
2020/12/05 04:10:11;;;;;;;52.63;27.27;;;1.90;91.80;;;;;;4988891;28;20038;-76
2020/12/05 04:12:37;;;;;;;52.03;27.47;;;1.80;91.80;;;;;;4990388;28;20141;-75
2020/12/05 04:15:04;;;;;;;46.90;24.43;;;1.90;91.80;;;;;;5004954;28;20044;-76
2020/12/05 04:17:30;;;;;;;47.07;25.37;;;1.90;91.80;;;;;;5005937;28;20046;-75
2020/12/05 04:19:55;;;;;;;47.80;25.23;;;1.90;91.80;;;;;;5005822;28;20046;-75
2020/12/05 04:22:21;;;;;;;47.77;24.70;;;2.00;91.80;;;;;;4973991;28;20034;-74
2020/12/05 04:24:47;;;;;;;47.30;25.53;;;2.00;92.00;;;;;;4961241;28;20042;-74
2020/12/05 04:27:12;;;;;;;51.27;26.03;;;2.00;91.80;;;;;;4960445;28;20042;-75
2020/12/05 04:29:38;;;;;;;46.20;20.67;;;2.00;91.70;;;;;;4977078;28;20492;-75
2020/12/05 04:32:04;;;;;;;46.10;25.07;;;2.10;91.70;;;;;;4993860;28;20505;-75
2020/12/05 04:34:30;;;;;;;45.77;24.90;;;2.10;91.70;;;;;;4976736;28;20175;-75
2020/12/05 04:36:56;;;;;;;45.67;23.97;;;2.10;91.70;;;;;;4993284;28;20031;-75
2020/12/05 04:39:21;;;;;;;46.60;24.40;;;2.10;91.70;;;;;;4992661;28;20038;-75
2020/12/05 04:41:47;;;;;;;45.03;25.37;;;2.40;91.70;;;;;;4994201;28;20041;-74
2020/12/05 04:44:15;;;;;;;45.17;24.87;;;2.20;91.70;;;;;;5009724;28;20542;-76
2020/12/05 04:46:41;;;;;;;48.53;26.27;;;2.20;91.70;;;;;;4992797;28;20400;-75
2020/12/05 04:49:08;;;;;;;48.60;25.47;;;2.20;91.60;;;;;;4993237;28;20113;-75
2020/12/05 04:51:38;;;;;;;46.70;24.77;;;2.30;91.60;;;;;;4993612;28;20030;-75
2020/12/05 04:54:05;;;;;;;49.50;26.10;;;2.30;91.60;;;;;;4977124;28;20092;-75
2020/12/05 04:56:39;;;;;;;47.50;24.83;;;2.20;91.50;;;;;;4993183;28;20076;-76
2020/12/05 04:59:08;;;;;;;44.00;24.83;;;2.30;91.50;;;;;;4976724;28;20035;-75
2020/12/05 05:01:38;;;;;;;44.87;21.80;;;2.30;91.50;;;;;;4992357;28;20743;-75
2020/12/05 05:04:05;;;;;;;47.37;26.03;;;2.30;91.50;;;;;;4992077;28;20729;-75
2020/12/05 05:06:32;;;;;;;47.43;24.77;;;2.30;91.50;;;;;;4993591;28;20096;-75
2020/12/05 05:08:58;;;;;;;46.40;25.43;;;2.30;91.50;;;;;;4959397;28;20035;-76
2020/12/05 05:11:28;;;;;;;48.50;25.40;;;2.30;91.50;;;;;;4993807;28;20133;-75
2020/12/05 05:14:04;;;;;;;47.55;25.45;;;2.30;91.40;;;;;;4993170;28;20048;-76
2020/12/05 05:16:30;;;;;;;48.53;25.67;;;2.40;91.40;;;;;;4993608;28;20399;-75
2020/12/05 05:18:57;;;;;;;46.77;26.07;;;2.30;91.40;;;;;;4993906;28;20053;-76
2020/12/05 05:21:39;;;;;;;45.63;25.00;;;2.40;91.40;;;;;;4991925;28;20046;-76
2020/12/05 05:24:15;;;;;;;50.77;26.00;;;2.40;91.40;;;;;;4993362;28;20046;-75
2020/12/05 05:26:57;;;;;;;48.00;25.33;;;2.40;91.30;;;;;;4992835;28;20038;-74
2020/12/05 05:29:33;;;;;;;47.30;24.83;;;2.40;91.40;;;;;;5007958;28;20128;-76
2020/12/05 05:32:16;;;;;;;44.93;24.40;;;2.40;91.40;;;;;;4991083;28;20046;-75
2020/12/05 05:34:46;;;;;;;50.63;25.57;;;2.50;91.40;;;;;;4991627;28;20537;-74
2020/12/05 05:37:17;;;;;;;46.97;26.47;;;2.50;91.40;;;;;;4993254;28;20057;-75
2020/12/05 05:39:53;;;;;;;48.27;25.87;;;2.50;91.40;;;;;;4992987;28;20064;-74
2020/12/05 05:42:33;;;;;;;46.13;25.13;;;2.50;91.30;;;;;;4992607;28;20549;-75
2020/12/05 05:45:22;;;;;;;46.50;25.90;;;2.50;91.30;;;;;;4992883;28;20038;-75
2020/12/05 05:47:51;;;;;;;48.80;25.10;;;2.50;91.30;;;;;;4992782;28;20041;-74
2020/12/05 05:50:21;;;;;;;48.03;24.60;;;2.50;91.30;;;;;;4993094;28;20099;-75
2020/12/05 05:52:58;;;;;;;44.85;24.88;;;2.50;91.20;;;;;;4990791;28;20043;-75
2020/12/05 05:55:48;;;;;;;47.90;26.10;;;2.50;91.20;;;;;;4991841;28;20035;-74
2020/12/05 05:58:18;;;;;;;46.00;25.17;;;2.60;91.40;;;;;;4992550;28;20038;-75
2020/12/05 06:00:46;;;;;;;47.83;23.23;;;2.40;91.20;;;;;;4992880;28;20047;-75
2020/12/05 06:03:25;;;;;;;48.60;24.97;;;2.40;91.20;;;;;;4990552;28;20061;-75
2020/12/05 06:05:53;;;;;;;49.17;25.10;;;2.40;91.30;;;;;;4992794;28;20047;-74
2020/12/05 06:08:21;;;;;;;48.93;26.33;;;2.40;91.20;;;;;;4991270;28;20030;-75
2020/12/05 06:10:56;;;;;;;45.90;24.83;;;2.40;91.20;;;;;;5008058;28;20038;-75
2020/12/05 06:13:25;;;;;;;45.93;24.83;;;2.40;91.20;;;;;;4990669;28;20039;-75
2020/12/05 06:15:52;;;;;;;48.13;25.30;;;2.40;91.10;;;;;;4975467;28;20489;-75
2020/12/05 06:18:20;;;;;;;46.93;25.70;;;2.40;91.00;;;;;;4992457;28;20097;-75
2020/12/05 06:20:47;;;;;;;51.00;26.20;;;2.30;91.00;;;;;;4991683;28;20038;-75
2020/12/05 06:23:31;;;;;;;50.10;25.87;;;2.30;91.00;;;;;;4990787;28;20042;-75
2020/12/05 06:25:59;;;;;;;46.50;25.70;;;2.30;91.10;;;;;;4992385;28;20191;-74
2020/12/05 06:28:25;;;;;;;52.33;27.23;;;2.30;91.20;;;;;;4992897;28;20471;-76
2020/12/05 06:30:54;;;;;;;52.30;27.60;;;2.30;91.30;;;;;;4992152;28;20066;-75
2020/12/05 06:33:38;;;;;;;48.50;25.70;;;2.30;91.30;;;;;;4991903;28;20034;-74
2020/12/05 06:36:28;;;;;;;46.53;25.77;;;2.40;91.30;;;;;;5007026;28;20058;-75
2020/12/05 06:39:06;;;;;;;46.20;25.15;;;2.40;91.30;;;;;;4992015;28;20042;-75
2020/12/05 06:41:37;;;;;;;49.37;26.07;;;2.40;91.20;;;;;;4992661;28;20146;-75
2020/12/05 06:44:13;;;;;;;47.67;25.27;;;2.40;91.20;;;;;;4991449;28;20038;-76
2020/12/05 06:46:58;;;;;;;48.40;24.13;;;2.40;91.10;;;;;;4991047;28;20053;-74
2020/12/05 06:49:39;;;;;;;51.33;26.60;;;2.40;90.90;;;;;;4992054;28;20045;-76
2020/12/05 06:52:28;;;;;;;52.70;28.15;;;2.30;90.70;;;;;;4991475;28;20038;-75
2020/12/05 06:55:16;;;;;;;52.63;26.80;;;2.20;90.60;;;;;;4992338;28;20062;-75
2020/12/05 06:57:43;;;;;;;53.67;28.37;;;2.10;90.70;;;;;;4992021;28;20391;-75
2020/12/05 07:00:16;;;;;;;53.00;27.93;;;2.00;90.70;;;;;;4992068;28;20045;-74
2020/12/05 07:02:49;;;;;;;52.83;27.87;;;1.90;90.80;;;;;;4990429;28;20161;-76
2020/12/05 07:05:21;;;;;;;53.27;27.83;;;1.90;91.00;;;;;;4991015;28;20052;-76
2020/12/05 07:07:48;;;;;;;54.60;27.00;;;1.90;91.20;;;;;;4991259;28;20097;-76
2020/12/05 07:10:15;;;;;;;49.07;26.07;;;1.90;91.30;;;;;;4990589;28;20047;-75
2020/12/05 07:12:42;;;;;;;51.10;26.77;;;2.00;91.40;;;;;;4989951;28;20043;-76
2020/12/05 07:15:28;;;;;;;53.53;28.30;;;2.00;91.50;;;;;;4988936;28;20538;-76
2020/12/05 07:17:58;;;;;;;52.77;28.30;;;2.10;91.50;;;;;;4991609;28;20042;-76
2020/12/05 07:20:25;;;;;;;50.27;26.27;;;2.10;91.40;;;;;;4991223;28;20097;-76
2020/12/05 07:22:54;;;;;;;53.07;27.40;;;2.10;91.40;;;;;;4989753;28;20088;-76
2020/12/05 07:25:21;;;;;;;52.97;27.73;;;2.20;91.30;;;;;;4990247;28;20104;-75
2020/12/05 07:27:48;;;;;;;52.63;25.77;;;2.20;91.30;;;;;;4991490;28;20035;-76
2020/12/05 07:30:14;;;;;;;54.67;27.17;;;2.20;91.30;;;;;;4992049;28;20509;-76
2020/12/05 07:32:41;;;;;;;51.97;27.17;;;2.20;91.40;;;;;;5006235;28;20034;-76
2020/12/05 07:35:15;;;;;;;49.90;26.67;;;2.20;91.40;;;;;;4991392;28;20070;-75
2020/12/05 07:37:42;;;;;;;47.90;26.03;;;2.30;91.40;;;;;;4991730;28;20039;-75
2020/12/05 07:40:08;;;;;;;48.10;25.87;;;2.30;91.40;;;;;;4991248;28;20121;-75
2020/12/05 07:42:34;;;;;;;43.50;24.83;;;2.30;91.40;;;;;;4990917;28;20495;-74
2020/12/05 07:45:05;;;;;;;50.90;27.43;;;2.30;91.40;;;;;;4973662;28;20034;-74
2020/12/05 07:47:31;;;;;;;49.53;25.60;;;2.30;91.60;;;;;;4990444;28;20035;-75
2020/12/05 07:49:56;;;;;;;52.33;28.33;;;2.40;91.40;;;;;;4990455;28;20127;-75
2020/12/05 07:52:23;;;;;;;52.23;27.33;;;2.40;91.40;;;;;;5005632;28;20118;-74
2020/12/05 07:54:57;;;;;;;49.67;27.47;;;2.40;91.40;;;;;;5007294;28;20084;-75
2020/12/05 07:57:27;;;;;;;48.50;26.67;;;2.40;91.40;;;;;;5014362;28;20697;-74
2020/12/05 08:00:13;;;;;;;48.13;26.50;;;2.50;91.40;;;;;;5013718;28;20041;-75
2020/12/05 08:02:57;;;;;;;47.90;26.07;;;2.50;91.40;;;;;;5014071;28;20046;-75
2020/12/05 08:05:29;;;;;;;50.13;25.20;;;2.50;91.40;;;;;;5014099;28;20099;-74
2020/12/05 08:08:03;;;;;;;52.13;27.00;;;2.50;91.30;;;;;;5013748;28;20034;-74
2020/12/05 08:10:31;;;;;;;49.90;26.50;;;2.50;91.30;;;;;;5013238;28;20081;-74
2020/12/05 08:12:59;;;;;;;47.37;24.70;;;2.60;91.30;;;;;;5012973;28;20434;-74
2020/12/05 08:15:27;;;;;;;57.37;30.43;;;2.60;91.40;;;;;;5013604;28;20438;-74
2020/12/05 08:17:55;;;;;;;50.97;27.90;;;2.60;91.30;;;;;;4997015;28;20065;-75
2020/12/05 08:20:21;;;;;;;53.30;28.63;;;2.60;91.30;;;;;;5013470;28;20030;-74
2020/12/05 08:22:47;;;;;;;59.50;28.53;;;2.70;91.30;;;;;;5013714;28;20391;-75
2020/12/05 08:25:12;;;;;;;53.13;27.33;;;2.70;91.30;;;;;;5013277;28;20060;-75
2020/12/05 08:27:39;;;;;;;51.10;28.60;;;2.70;91.30;;;;;;5014542;28;20046;-74
2020/12/05 08:30:06;;;;;;;48.40;26.47;;;2.70;91.30;;;;;;5014344;28;20081;-75
2020/12/05 08:32:32;;;;;;;46.03;25.03;;;2.80;91.20;;;;;;5013218;28;20041;-75
2020/12/05 08:35:09;;;;;;;49.57;26.00;;;2.80;91.20;;;;;;5014127;28;20038;-75
2020/12/05 08:37:41;;;;;;;48.47;25.33;;;2.80;91.20;;;;;;5014562;28;20053;-74
2020/12/05 08:40:06;;;;;;;50.93;26.30;;;2.80;91.10;;;;;;5014113;28;20045;-76
2020/12/05 08:42:32;;;;;;;47.53;25.27;;;2.80;91.10;;;;;;5013663;28;20414;-76
2020/12/05 08:44:58;;;;;;;49.83;27.23;;;2.80;91.00;;;;;;5013866;28;20038;-75
2020/12/05 08:47:24;;;;;;;52.67;27.63;;;2.80;91.10;;;;;;5013030;28;20530;-76
2020/12/05 08:49:49;;;;;;;48.40;26.33;;;2.80;91.10;;;;;;5012999;28;20113;-76
2020/12/05 08:52:23;;;;;;;49.27;26.77;;;2.80;91.20;;;;;;5011884;28;20092;-76
2020/12/05 08:54:51;;;;;;;46.20;26.27;;;2.80;91.20;;;;;;5014212;28;20041;-76
2020/12/05 08:57:18;;;;;;;47.90;26.03;;;2.80;91.10;;;;;;5013529;28;20116;-76
2020/12/05 08:59:45;;;;;;;49.57;26.23;;;2.90;91.10;;;;;;5013988;28;20050;-76
2020/12/05 09:02:12;;;;;;;47.43;26.17;;;2.90;91.10;;;;;;5011515;28;20616;-76
2020/12/05 09:04:39;;;;;;;49.33;25.53;;;2.90;91.10;;;;;;5012688;28;20038;-76
2020/12/05 09:07:17;;;;;;;47.90;26.90;;;3.00;91.10;;;;;;5013503;28;20557;-75
2020/12/05 09:09:47;;;;;;;47.43;24.97;;;3.00;91.10;;;;;;5012130;28;20037;-76
2020/12/05 09:12:18;;;;;;;47.33;26.53;;;3.00;91.10;;;;;;5010801;28;20044;-76
2020/12/05 09:14:47;;;;;;;48.28;26.50;;;3.00;90.90;;;;;;5012630;28;20046;-76
2020/12/05 09:17:42;;;;;;;47.03;25.87;;;3.00;90.90;;;;;;5013974;28;20034;-75
2020/12/05 09:20:19;;;;;;;49.93;25.80;;;3.00;90.90;;;;;;5008832;28;20084;-76
2020/12/05 09:22:56;;;;;;;48.10;26.53;;;3.00;90.90;;;;;;5012696;28;20565;-75
2020/12/05 09:25:34;;;;;;;52.10;28.00;;;3.00;90.90;;;;;;5013584;28;20041;-75
2020/12/05 09:28:01;;;;;;;47.97;27.53;;;3.00;91.00;;;;;;5011760;28;20372;-74
2020/12/05 09:30:28;;;;;;;48.80;25.83;;;3.10;91.10;;;;;;5012319;28;20046;-75
2020/12/05 09:32:54;;;;;;;50.27;26.77;;;3.20;91.00;;;;;;5012348;28;20634;-74
2020/12/05 09:35:23;;;;;;;47.53;26.70;;;3.20;91.10;;;;;;5013521;28;20047;-74
2020/12/05 09:37:50;;;;;;;46.67;25.43;;;3.20;90.90;;;;;;5012442;28;20038;-73
2020/12/05 09:40:18;;;;;;;51.60;26.27;;;3.20;90.70;;;;;;5012903;28;20069;-73
2020/12/05 09:42:45;;;;;;;46.30;25.73;;;3.20;90.80;;;;;;5012627;28;20073;-74
2020/12/05 09:45:13;;;;;;;44.83;25.40;;;3.30;90.80;;;;;;5011315;28;20042;-74
2020/12/05 09:47:43;;;;;;;46.20;24.57;;;3.30;90.70;;;;;;5011829;28;20034;-74
2020/12/05 09:50:10;;;;;;;45.60;24.45;;;3.30;90.60;;;;;;5011984;28;20117;-74
2020/12/05 09:52:35;;;;;;;46.20;25.80;;;3.20;90.50;;;;;;5012037;28;20133;-74
2020/12/05 09:55:01;;;;;;;46.33;25.67;;;3.20;90.50;;;;;;5012946;28;20125;-74
2020/12/05 09:57:28;;;;;;;47.17;26.13;;;3.20;90.60;;;;;;5012545;28;20084;-74
2020/12/05 09:59:53;;;;;;;45.60;24.10;;;3.20;90.80;;;;;;5012845;28;20037;-74
2020/12/05 10:02:19;;;;;;;49.40;26.83;;;3.20;90.60;;;;;;5010697;28;20034;-74
2020/12/05 10:04:45;;;;;;;47.90;26.83;;;3.20;90.60;;;;;;5012520;28;20580;-74
2020/12/05 10:07:10;;;;;;;47.07;26.43;;;3.20;90.60;;;;;;5011413;28;20034;-74
2020/12/05 10:09:36;;;;;;;51.13;28.83;;;3.20;90.70;;;;;;5012292;28;20046;-74
2020/12/05 10:12:02;;;;;;;47.73;26.47;;;3.30;90.80;;;;;;5012049;28;20037;-74
2020/12/05 10:14:28;;;;;;;50.50;27.80;;;3.40;90.80;;;;;;5012360;28;20356;-74
2020/12/05 10:16:53;;;;;;;53.30;29.47;;;3.40;90.60;;;;;;5010838;28;20112;-72
2020/12/05 10:19:19;;;;;;;48.53;26.43;;;3.40;90.50;;;;;;5011634;28;20034;-74
2020/12/05 10:21:49;;;;;;;48.97;26.83;;;3.40;90.50;;;;;;5011644;28;20471;-74
2020/12/05 10:24:16;;;;;;;46.73;25.90;;;3.50;90.50;;;;;;5011018;28;20042;-74
2020/12/05 10:26:49;;;;;;;48.43;26.70;;;3.50;90.50;;;;;;5012044;28;20066;-74
2020/12/05 10:29:15;;;;;;;56.13;32.23;;;3.50;90.40;;;;;;5012045;28;20038;-74
2020/12/05 10:31:46;;;;;;;49.10;27.47;;;3.50;90.30;;;;;;5011613;28;20034;-73
2020/12/05 10:34:12;;;;;;;44.28;25.10;;;3.50;90.40;;;;;;5011830;28;20045;-75
2020/12/05 10:36:38;;;;;;;47.00;26.93;;;3.60;90.40;;;;;;5012062;28;20384;-74
2020/12/05 10:39:05;;;;;;;46.70;26.00;;;3.60;90.50;;;;;;5010483;28;20053;-74
2020/12/05 10:41:30;;;;;;;46.57;26.53;;;3.70;90.40;;;;;;5010793;28;20040;-75
2020/12/05 10:43:56;;;;;;;43.53;24.70;;;3.70;90.20;;;;;;5011490;28;20046;-74
2020/12/05 10:46:22;;;;;;;42.47;23.57;;;3.70;90.40;;;;;;5011661;28;20380;-75
2020/12/05 10:48:48;;;;;;;43.57;24.53;;;3.80;90.60;;;;;;5011779;28;20471;-73
2020/12/05 10:51:13;;;;;;;45.80;24.93;;;3.80;90.50;;;;;;5012183;28;20502;-74
2020/12/05 10:53:39;;;;;;;43.23;24.80;;;3.90;90.30;;;;;;5020572;28;20120;-75
2020/12/05 10:56:05;;;;;;;40.00;22.33;;;4.00;90.20;;;;;;5022370;28;20096;-74
2020/12/05 10:58:31;;;;;;;43.93;24.93;;;4.00;90.10;;;;;;5018286;28;20038;-74
2020/12/05 11:00:56;;;;;;;40.10;22.87;;;4.10;90.10;;;;;;5022326;28;20042;-74
2020/12/05 11:03:22;;;;;;;42.63;24.23;;;4.10;90.10;;;;;;5018686;28;20410;-75
2020/12/05 11:05:48;;;;;;;43.47;24.87;;;4.10;89.50;;;;;;5003171;28;20633;-75
2020/12/05 11:08:13;;;;;;;41.60;23.70;;;4.00;89.70;;;;;;5021203;28;20037;-73
2020/12/05 11:10:40;;;;;;;43.03;24.43;;;4.10;90.20;;;;;;5019827;28;20096;-74
2020/12/05 11:13:05;;;;;;;39.03;22.50;;;4.30;90.30;;;;;;5018444;28;20046;-74
2020/12/05 11:15:31;;;;;;;42.03;23.77;;;4.50;90.30;;;;;;5019177;28;20136;-74
2020/12/05 11:17:57;;;;;;;43.40;23.67;;;4.60;90.10;;;;;;5018653;28;20030;-74
2020/12/05 11:20:22;;;;;;;40.00;23.70;;;4.70;89.40;;;;;;5019406;28;20387;-72
2020/12/05 11:22:49;;;;;;;39.23;22.47;;;4.80;89.50;;;;;;5018607;28;20025;-74
2020/12/05 11:25:15;;;;;;;36.10;21.90;;;4.90;89.10;;;;;;5019680;28;20038;-72
2020/12/05 11:27:41;;;;;;;38.97;22.80;;;4.90;89.10;;;;;;5017216;28;20077;-74
2020/12/05 11:30:07;;;;;;;37.23;22.27;;;4.90;88.50;;;;;;5009159;28;20042;-74
2020/12/05 11:32:33;;;;;;;38.97;22.57;;;4.90;88.40;;;;;;5010185;28;20030;-74
2020/12/05 11:34:58;;;;;;;45.73;25.80;;;4.90;88.30;;;;;;5010321;28;20072;-74
2020/12/05 11:37:24;;;;;;;42.20;23.23;;;4.80;88.10;;;;;;5009493;28;20048;-74
2020/12/05 11:39:50;;;;;;;40.03;22.73;;;4.70;87.50;;;;;;4993153;28;20049;-74
2020/12/05 11:42:15;;;;;;;50.80;28.90;;;4.60;88.10;;;;;;5009720;28;20909;-75
2020/12/05 11:44:41;;;;;;;43.67;26.00;;;4.70;88.70;;;;;;5004532;28;20041;-74
2020/12/05 11:47:07;;;;;;;43.47;25.90;;;4.70;88.90;;;;;;5028654;28;20046;-74
2020/12/05 11:49:32;;;;;;;38.13;23.03;;;4.80;88.50;;;;;;5030349;28;20038;-74
2020/12/05 11:51:58;;;;;;;42.90;24.77;;;4.80;88.40;;;;;;5028651;28;20046;-74
2020/12/05 11:54:25;;;;;;;44.37;24.67;;;4.80;88.10;;;;;;5027538;28;20037;-74
2020/12/05 11:56:50;;;;;;;43.00;24.63;;;4.80;88.00;;;;;;5030225;28;20037;-74
2020/12/05 11:59:16;;;;;;;37.60;21.17;;;4.90;87.80;;;;;;5011934;28;20040;-74
2020/12/05 12:01:42;;;;;;;39.13;22.47;;;4.90;87.70;;;;;;5028869;28;20045;-74
2020/12/05 12:04:08;;;;;;;40.90;22.67;;;4.90;87.40;;;;;;5029900;28;20041;-73
2020/12/05 12:06:34;;;;;;;40.67;23.03;;;4.90;87.90;;;;;;4992549;28;20046;-74
2020/12/05 12:09:00;;;;;;;39.73;22.83;;;5.00;88.20;;;;;;4992592;28;20041;-73
2020/12/05 12:11:25;;;;;;;33.20;20.47;;;5.00;88.10;;;;;;5009933;28;20038;-73
2020/12/05 12:13:51;;;;;;;37.80;20.77;;;5.10;87.60;;;;;;5009911;28;20068;-74
2020/12/05 12:16:17;;;;;;;36.23;20.43;;;5.20;87.10;;;;;;5012353;28;20146;-73
2020/12/05 12:18:43;;;;;;;34.33;20.47;;;5.10;86.90;;;;;;5013727;28;20461;-74
2020/12/05 12:21:09;;;;;;;37.80;20.80;;;5.00;87.10;;;;;;5021153;28;20042;-73
2020/12/05 12:23:35;;;;;;;33.27;20.03;;;5.00;87.10;;;;;;5018870;28;20061;-74
2020/12/05 12:26:01;;;;;;;37.33;20.93;;;5.00;87.20;;;;;;5029897;28;20060;-73
2020/12/05 12:28:27;;;;;;;36.13;20.33;;;4.90;87.20;;;;;;5002563;28;20532;-74
2020/12/05 12:30:52;;;;;;;34.70;20.23;;;4.90;87.30;;;;;;4993630;28;20125;-74
2020/12/05 12:33:18;;;;;;;34.47;20.93;;;5.00;87.80;;;;;;4988518;28;20042;-74
2020/12/05 12:35:45;;;;;;;33.90;20.47;;;5.10;88.00;;;;;;4988419;28;20034;-73
2020/12/05 12:38:11;;;;;;;32.10;19.53;;;5.20;87.90;;;;;;4990544;28;20050;-74
2020/12/05 12:40:37;;;;;;;35.10;20.37;;;5.20;87.30;;;;;;4989260;28;20038;-75
2020/12/05 12:43:03;;;;;;;35.60;20.33;;;5.20;86.80;;;;;;4995117;28;20042;-71